Aeroporto :
LOGIN :

Iscrizione | Disclaimer

   EN    FR    IT 

 










Sommario :    VFR   VFR Marginale   IFR   IFR Intensivo   IFR Molto Intensivo
Visibilità : 
Base nubi : 
>= 8 km
>= 3000ft
5 / 8 km
1000 / 3000 ft
1500m / 5 km
500 / 1000 ft
800 / 1500m
200 / 500 ft
< 800m
< 200 ft
Simboli :   Temporali  Nebbia  Neve Forte  Precipitazioni Forti  Vento > 20 kt
SIGMETs :   Varie  Temporali  Ghiacco  Turbolenza  Onda orograficha  Ceneri Vulcaniche






- Altitudine del aeroporto : 436 ft
- Codice IATA : ANG


LFBU - Angoulême Brie Champniers

ULTIMO METAR :
  • 271300Z AUTO 05014KT 020V090 CAVOK 26/08 Q1027

METARs OBSOLETI :
  • 271230Z AUTO 06015KT 020V080 CAVOK 26/08 Q1028
  • 271200Z AUTO 05014KT 020V090 CAVOK 26/08 Q1028
  • 271130Z AUTO 06014KT 020V090 CAVOK 26/07 Q1028
  • 271100Z AUTO 07014KT 020V090 CAVOK 25/07 Q1028
  • 271030Z AUTO 05016KT 020V090 CAVOK 24/06 Q1028
  • 271000Z AUTO 04017KT 010V070 CAVOK 23/07 Q1028

Previsioni scadute.



MetMap, La meteo Aeronautica in un colpo d'occhio ! - Copyright ORBIFLY Dicembre 2007 - Disclaimer

ORBIFLY MET'MAP TEAM :

Programmazione e sviluppo : Alexandra Zaïnal
Concezione : Baudouin d'Aumeries
Aiuto per la programmazione : Marc-Olivier Méhu
Supporto tecnico e logistico : Manuel Goepfert
Aiuto per la traduzione : Arnaldo La Scala

Contatto : metmap@orbifly.com




FONTI E CREDITI :

   NOAA